sensor_id;sensor_type;location;lat;lon;timestamp;pressure;altitude;pressure_sealevel;temperature;humidity
17311;BME280;8773;43.300;0.394;2022-10-17T00:00:39;99365.34;;;17.85;100.00
17311;BME280;8773;43.300;0.394;2022-10-17T00:03:09;99371.66;;;18.13;100.00
17311;BME280;8773;43.300;0.394;2022-10-17T00:05:38;99379.69;;;18.42;100.00
17311;BME280;8773;43.300;0.394;2022-10-17T00:08:06;99377.06;;;18.48;100.00
17311;BME280;8773;43.300;0.394;2022-10-17T00:10:35;99382.38;;;18.59;100.00
17311;BME280;8773;43.300;0.394;2022-10-17T00:13:03;99390.31;;;18.76;100.00
17311;BME280;8773;43.300;0.394;2022-10-17T00:15:32;99396.53;;;18.83;100.00
17311;BME280;8773;43.300;0.394;2022-10-17T00:18:00;99393.03;;;18.90;100.00
17311;BME280;8773;43.300;0.394;2022-10-17T00:20:30;99405.34;;;18.85;100.00
17311;BME280;8773;43.300;0.394;2022-10-17T00:22:58;99423.84;;;18.82;100.00
17311;BME280;8773;43.300;0.394;2022-10-17T00:25:26;99429.06;;;18.72;100.00
17311;BME280;8773;43.300;0.394;2022-10-17T00:27:54;99431.78;;;18.85;100.00
17311;BME280;8773;43.300;0.394;2022-10-17T00:30:22;99438.84;;;18.95;100.00
17311;BME280;8773;43.300;0.394;2022-10-17T00:32:50;99431.72;;;18.74;100.00
17311;BME280;8773;43.300;0.394;2022-10-17T00:35:18;99431.69;;;18.63;100.00
17311;BME280;8773;43.300;0.394;2022-10-17T00:37:47;99435.22;;;18.68;100.00
17311;BME280;8773;43.300;0.394;2022-10-17T00:40:15;99440.53;;;18.70;100.00
17311;BME280;8773;43.300;0.394;2022-10-17T00:42:43;99436.03;;;18.47;100.00
17311;BME280;8773;43.300;0.394;2022-10-17T00:45:18;99437.78;;;18.48;100.00
17311;BME280;8773;43.300;0.394;2022-10-17T00:47:50;99428.16;;;18.55;100.00
17311;BME280;8773;43.300;0.394;2022-10-17T00:50:20;99436.91;;;18.51;100.00
17311;BME280;8773;43.300;0.394;2022-10-17T00:52:50;99448.44;;;18.65;100.00
17311;BME280;8773;43.300;0.394;2022-10-17T00:55:21;99452.81;;;18.63;100.00
17311;BME280;8773;43.300;0.394;2022-10-17T00:57:51;99459.78;;;18.41;100.00
17311;BME280;8773;43.300;0.394;2022-10-17T01:00:20;99472.09;;;18.39;100.00
17311;BME280;8773;43.300;0.394;2022-10-17T01:02:49;99481.84;;;18.52;100.00
17311;BME280;8773;43.300;0.394;2022-10-17T01:05:18;99477.47;;;18.59;100.00
17311;BME280;8773;43.300;0.394;2022-10-17T01:07:47;99485.41;;;18.62;100.00
17311;BME280;8773;43.300;0.394;2022-10-17T01:10:18;99480.09;;;18.56;100.00
17311;BME280;8773;43.300;0.394;2022-10-17T01:12:56;99472.13;;;18.48;100.00
17311;BME280;8773;43.300;0.394;2022-10-17T01:15:36;99480.97;;;18.52;100.00
17311;BME280;8773;43.300;0.394;2022-10-17T01:18:14;99472.16;;;18.47;100.00
17311;BME280;8773;43.300;0.394;2022-10-17T01:21:05;99471.22;;;18.43;100.00
17311;BME280;8773;43.300;0.394;2022-10-17T01:26:45;99480.06;;;18.47;100.00
17311;BME280;8773;43.300;0.394;2022-10-17T01:29:32;99481.66;;;18.17;100.00
17311;BME280;8773;43.300;0.394;2022-10-17T01:32:08;99471.13;;;18.23;100.00
17311;BME280;8773;43.300;0.394;2022-10-17T01:34:45;99476.50;;;18.40;100.00
17311;BME280;8773;43.300;0.394;2022-10-17T01:37:20;99468.44;;;18.13;100.00
17311;BME280;8773;43.300;0.394;2022-10-17T01:39:58;99470.13;;;18.00;100.00
17311;BME280;8773;43.300;0.394;2022-10-17T01:42:32;99467.53;;;18.11;100.00
17311;BME280;8773;43.300;0.394;2022-10-17T01:45:06;99475.31;;;17.92;100.00
17311;BME280;8773;43.300;0.394;2022-10-17T01:47:38;99469.13;;;17.88;100.00
17311;BME280;8773;43.300;0.394;2022-10-17T01:50:12;99468.59;;;17.19;100.00
17311;BME280;8773;43.300;0.394;2022-10-17T01:52:45;99464.41;;;17.44;100.00
17311;BME280;8773;43.300;0.394;2022-10-17T01:55:18;99473.16;;;17.40;100.00
17311;BME280;8773;43.300;0.394;2022-10-17T01:57:50;99481.03;;;17.37;100.00
17311;BME280;8773;43.300;0.394;2022-10-17T02:00:22;99458.63;;;16.95;100.00
17311;BME280;8773;43.300;0.394;2022-10-17T02:02:55;99478.41;;;17.39;100.00
17311;BME280;8773;43.300;0.394;2022-10-17T02:05:30;99478.28;;;17.27;100.00
17311;BME280;8773;43.300;0.394;2022-10-17T02:07:59;99472.16;;;17.25;100.00
17311;BME280;8773;43.300;0.394;2022-10-17T02:10:38;99475.00;;;17.54;100.00
17311;BME280;8773;43.300;0.394;2022-10-17T02:13:09;99480.50;;;17.78;100.00
17311;BME280;8773;43.300;0.394;2022-10-17T02:15:58;99492.03;;;17.94;100.00
17311;BME280;8773;43.300;0.394;2022-10-17T02:18:43;99484.78;;;17.62;100.00
17311;BME280;8773;43.300;0.394;2022-10-17T02:21:18;99489.28;;;17.79;100.00
17311;BME280;8773;43.300;0.394;2022-10-17T02:23:54;99492.16;;;18.05;100.00
17311;BME280;8773;43.300;0.394;2022-10-17T02:26:32;99491.06;;;17.83;100.00
17311;BME280;8773;43.300;0.394;2022-10-17T02:29:07;99485.84;;;17.91;100.00
17311;BME280;8773;43.300;0.394;2022-10-17T02:31:40;99491.22;;;18.01;100.00
17311;BME280;8773;43.300;0.394;2022-10-17T02:34:16;99480.50;;;17.78;100.00
17311;BME280;8773;43.300;0.394;2022-10-17T02:36:47;99487.63;;;17.90;100.00
17311;BME280;8773;43.300;0.394;2022-10-17T02:39:18;99483.38;;;18.11;100.00
17311;BME280;8773;43.300;0.394;2022-10-17T02:41:48;99484.09;;;17.91;100.00
17311;BME280;8773;43.300;0.394;2022-10-17T02:44:18;99492.81;;;17.79;100.00
17311;BME280;8773;43.300;0.394;2022-10-17T02:46:51;99490.81;;;17.51;100.00
17311;BME280;8773;43.300;0.394;2022-10-17T02:49:46;99491.06;;;17.81;100.00
17311;BME280;8773;43.300;0.394;2022-10-17T02:52:22;99485.78;;;17.77;100.00
17311;BME280;8773;43.300;0.394;2022-10-17T02:54:57;99477.84;;;17.78;100.00
17311;BME280;8773;43.300;0.394;2022-10-17T02:57:30;99492.88;;;17.92;100.00
17311;BME280;8773;43.300;0.394;2022-10-17T03:00:00;99508.00;;;18.05;100.00
17311;BME280;8773;43.300;0.394;2022-10-17T03:02:37;99511.56;;;18.16;100.00
17311;BME280;8773;43.300;0.394;2022-10-17T03:05:08;99523.91;;;18.19;100.00
17311;BME280;8773;43.300;0.394;2022-10-17T03:07:36;99516.84;;;18.16;100.00
17311;BME280;8773;43.300;0.394;2022-10-17T03:10:08;99523.91;;;18.17;100.00
17311;BME280;8773;43.300;0.394;2022-10-17T03:12:36;99517.69;;;18.14;100.00
17311;BME280;8773;43.300;0.394;2022-10-17T03:15:05;99516.81;;;18.10;100.00
17311;BME280;8773;43.300;0.394;2022-10-17T03:17:34;99533.56;;;18.12;100.00
17311;BME280;8773;43.300;0.394;2022-10-17T03:20:03;99521.88;;;17.82;100.00
17311;BME280;8773;43.300;0.394;2022-10-17T03:22:33;99524.53;;;17.87;100.00
17311;BME280;8773;43.300;0.394;2022-10-17T03:25:01;99530.63;;;17.77;100.00
17311;BME280;8773;43.300;0.394;2022-10-17T03:27:29;99534.09;;;17.74;100.00
17311;BME280;8773;43.300;0.394;2022-10-17T03:29:57;99540.22;;;17.67;100.00
17311;BME280;8773;43.300;0.394;2022-10-17T03:32:25;99550.88;;;17.82;100.00
17311;BME280;8773;43.300;0.394;2022-10-17T03:34:53;99571.16;;;17.88;100.00
17311;BME280;8773;43.300;0.394;2022-10-17T03:37:21;99572.91;;;17.87;100.00
17311;BME280;8773;43.300;0.394;2022-10-17T03:39:50;99570.31;;;17.94;100.00
17311;BME280;8773;43.300;0.394;2022-10-17T03:42:18;99573.75;;;17.86;100.00
17311;BME280;8773;43.300;0.394;2022-10-17T03:44:46;99577.25;;;17.81;100.00
17311;BME280;8773;43.300;0.394;2022-10-17T03:47:14;99590.59;;;17.96;100.00
17311;BME280;8773;43.300;0.394;2022-10-17T03:49:42;99596.84;;;18.09;100.00
17311;BME280;8773;43.300;0.394;2022-10-17T03:52:10;99606.66;;;18.19;100.00
17311;BME280;8773;43.300;0.394;2022-10-17T03:54:39;99610.16;;;18.20;100.00
17311;BME280;8773;43.300;0.394;2022-10-17T03:57:08;99609.31;;;18.25;100.00
17311;BME280;8773;43.300;0.394;2022-10-17T03:59:36;99619.78;;;18.13;100.00
17311;BME280;8773;43.300;0.394;2022-10-17T04:02:04;99617.97;;;18.09;100.00
17311;BME280;8773;43.300;0.394;2022-10-17T04:04:32;99625.88;;;18.09;100.00
17311;BME280;8773;43.300;0.394;2022-10-17T04:07:00;99631.22;;;18.14;100.00
17311;BME280;8773;43.300;0.394;2022-10-17T04:09:28;99650.38;;;17.93;100.00
17311;BME280;8773;43.300;0.394;2022-10-17T04:11:56;99660.88;;;17.91;100.00
17311;BME280;8773;43.300;0.394;2022-10-17T04:14:25;99672.09;;;17.67;100.00
17311;BME280;8773;43.300;0.394;2022-10-17T04:16:53;99673.13;;;17.83;100.00
17311;BME280;8773;43.300;0.394;2022-10-17T04:19:21;99685.44;;;17.84;100.00
17311;BME280;8773;43.300;0.394;2022-10-17T04:21:49;99692.66;;;17.99;100.00
17311;BME280;8773;43.300;0.394;2022-10-17T04:24:17;99704.19;;;18.07;100.00
17311;BME280;8773;43.300;0.394;2022-10-17T04:26:48;99708.41;;;17.93;100.00
17311;BME280;8773;43.300;0.394;2022-10-17T04:29:16;99703.59;;;17.56;100.00
17311;BME280;8773;43.300;0.394;2022-10-17T04:31:45;99704.69;;;17.72;100.00
17311;BME280;8773;43.300;0.394;2022-10-17T04:34:13;99705.69;;;17.85;100.00
17311;BME280;8773;43.300;0.394;2022-10-17T04:36:41;99708.19;;;17.73;100.00
17311;BME280;8773;43.300;0.394;2022-10-17T04:39:09;99711.84;;;17.82;100.00
17311;BME280;8773;43.300;0.394;2022-10-17T04:41:42;99719.97;;;17.99;100.00
17311;BME280;8773;43.300;0.394;2022-10-17T04:44:10;99718.25;;;18.06;100.00
17311;BME280;8773;43.300;0.394;2022-10-17T04:46:38;99709.56;;;18.16;100.00
17311;BME280;8773;43.300;0.394;2022-10-17T04:49:08;99705.94;;;18.05;100.00
17311;BME280;8773;43.300;0.394;2022-10-17T04:51:36;99703.41;;;18.19;100.00
17311;BME280;8773;43.300;0.394;2022-10-17T04:54:04;99707.06;;;18.30;100.00
17311;BME280;8773;43.300;0.394;2022-10-17T04:56:32;99729.13;;;18.38;100.00
17311;BME280;8773;43.300;0.394;2022-10-17T04:59:00;99729.06;;;18.32;100.00
17311;BME280;8773;43.300;0.394;2022-10-17T05:01:28;99745.69;;;18.20;100.00
17311;BME280;8773;43.300;0.394;2022-10-17T05:03:56;99751.00;;;18.25;100.00
17311;BME280;8773;43.300;0.394;2022-10-17T05:06:26;99759.78;;;18.22;100.00
17311;BME280;8773;43.300;0.394;2022-10-17T05:08:54;99762.44;;;18.25;100.00
17311;BME280;8773;43.300;0.394;2022-10-17T05:11:24;99755.41;;;18.24;100.00
17311;BME280;8773;43.300;0.394;2022-10-17T05:13:53;99765.13;;;18.28;100.00
17311;BME280;8773;43.300;0.394;2022-10-17T05:16:22;99777.41;;;18.26;100.00
17311;BME280;8773;43.300;0.394;2022-10-17T05:18:51;99774.78;;;18.25;100.00
17311;BME280;8773;43.300;0.394;2022-10-17T05:21:23;99787.97;;;18.25;100.00
17311;BME280;8773;43.300;0.394;2022-10-17T05:23:53;99787.09;;;18.26;100.00
17311;BME280;8773;43.300;0.394;2022-10-17T05:26:22;99782.06;;;17.73;100.00
17311;BME280;8773;43.300;0.394;2022-10-17T05:28:50;99778.53;;;17.71;100.00
17311;BME280;8773;43.300;0.394;2022-10-17T05:31:19;99772.34;;;17.69;100.00
17311;BME280;8773;43.300;0.394;2022-10-17T05:33:47;99772.44;;;17.76;100.00
17311;BME280;8773;43.300;0.394;2022-10-17T05:36:15;99775.28;;;17.93;100.00
17311;BME280;8773;43.300;0.394;2022-10-17T05:38:43;99781.53;;;18.01;100.00
17311;BME280;8773;43.300;0.394;2022-10-17T05:41:12;99773.69;;;18.06;100.00
17311;BME280;8773;43.300;0.394;2022-10-17T05:43:40;99772.63;;;17.93;100.00
17311;BME280;8773;43.300;0.394;2022-10-17T05:46:08;99772.72;;;17.98;100.00
17311;BME280;8773;43.300;0.394;2022-10-17T05:48:37;99787.78;;;18.08;100.00
17311;BME280;8773;43.300;0.394;2022-10-17T05:51:07;99777.13;;;17.97;100.00
17311;BME280;8773;43.300;0.394;2022-10-17T05:53:37;99779.72;;;17.96;100.00
17311;BME280;8773;43.300;0.394;2022-10-17T05:56:07;99784.84;;;17.82;100.00
17311;BME280;8773;43.300;0.394;2022-10-17T05:58:39;99788.59;;;18.04;100.00
17311;BME280;8773;43.300;0.394;2022-10-17T06:01:18;99801.94;;;18.16;100.00
17311;BME280;8773;43.300;0.394;2022-10-17T06:03:46;99800.25;;;18.20;100.00
17311;BME280;8773;43.300;0.394;2022-10-17T06:06:14;99808.25;;;18.29;100.00
17311;BME280;8773;43.300;0.394;2022-10-17T06:08:42;99819.75;;;18.33;100.00
17311;BME280;8773;43.300;0.394;2022-10-17T06:11:10;99817.09;;;18.34;100.00
17311;BME280;8773;43.300;0.394;2022-10-17T06:13:40;99819.75;;;18.36;100.00
17311;BME280;8773;43.300;0.394;2022-10-17T06:16:08;99822.28;;;18.22;100.00
17311;BME280;8773;43.300;0.394;2022-10-17T06:18:36;99831.06;;;18.22;100.00
17311;BME280;8773;43.300;0.394;2022-10-17T06:21:06;99848.63;;;18.17;100.00
17311;BME280;8773;43.300;0.394;2022-10-17T06:23:35;99859.72;;;17.93;100.00
17311;BME280;8773;43.300;0.394;2022-10-17T06:26:04;99862.44;;;17.98;100.00
17311;BME280;8773;43.300;0.394;2022-10-17T06:28:33;99866.97;;;18.08;100.00
17311;BME280;8773;43.300;0.394;2022-10-17T06:31:05;99858.94;;;17.99;100.00
17311;BME280;8773;43.300;0.394;2022-10-17T06:33:33;99836.59;;;17.72;100.00
17311;BME280;8773;43.300;0.394;2022-10-17T06:36:02;99850.81;;;17.86;100.00
17311;BME280;8773;43.300;0.394;2022-10-17T06:38:30;99853.66;;;17.99;100.00
17311;BME280;8773;43.300;0.394;2022-10-17T06:41:03;99858.28;;;18.15;100.00
17311;BME280;8773;43.300;0.394;2022-10-17T06:43:34;99860.19;;;18.32;100.00
17311;BME280;8773;43.300;0.394;2022-10-17T06:46:05;99855.66;;;18.18;100.00
17311;BME280;8773;43.300;0.394;2022-10-17T06:48:33;99844.13;;;18.10;100.00
17311;BME280;8773;43.300;0.394;2022-10-17T06:51:01;99838.56;;;17.92;100.00
17311;BME280;8773;43.300;0.394;2022-10-17T06:53:31;99835.97;;;17.93;100.00
17311;BME280;8773;43.300;0.394;2022-10-17T06:55:59;99831.78;;;18.07;100.00
17311;BME280;8773;43.300;0.394;2022-10-17T06:58:29;99837.22;;;18.23;100.00
17311;BME280;8773;43.300;0.394;2022-10-17T07:00:58;99850.59;;;18.37;100.00
17311;BME280;8773;43.300;0.394;2022-10-17T07:03:29;99875.34;;;18.48;100.00
17311;BME280;8773;43.300;0.394;2022-10-17T07:05:57;99878.06;;;18.54;100.00
17311;BME280;8773;43.300;0.394;2022-10-17T07:08:25;99886.81;;;18.47;100.00
17311;BME280;8773;43.300;0.394;2022-10-17T07:10:54;99890.38;;;18.54;100.00
17311;BME280;8773;43.300;0.394;2022-10-17T07:13:22;99893.03;;;18.52;100.00
17311;BME280;8773;43.300;0.394;2022-10-17T07:15:52;99908.88;;;18.54;100.00
17311;BME280;8773;43.300;0.394;2022-10-17T07:18:23;99927.38;;;18.54;100.00
17311;BME280;8773;43.300;0.394;2022-10-17T07:20:53;99935.91;;;18.31;100.00
17311;BME280;8773;43.300;0.394;2022-10-17T07:23:22;99933.94;;;18.16;100.00
17311;BME280;8773;43.300;0.394;2022-10-17T07:25:50;99917.50;;;17.73;100.00
17311;BME280;8773;43.300;0.394;2022-10-17T07:28:18;99894.28;;;17.49;100.00
17311;BME280;8773;43.300;0.394;2022-10-17T07:30:46;99880.53;;;17.12;100.00
17311;BME280;8773;43.300;0.394;2022-10-17T07:33:20;99890.72;;;16.94;100.00
17311;BME280;8773;43.300;0.394;2022-10-17T07:35:48;99879.84;;;17.26;100.00
17311;BME280;8773;43.300;0.394;2022-10-17T07:38:19;99876.84;;;17.59;100.00
17311;BME280;8773;43.300;0.394;2022-10-17T07:40:53;99879.56;;;17.65;100.00
17311;BME280;8773;43.300;0.394;2022-10-17T07:43:21;99871.00;;;17.81;100.00
17311;BME280;8773;43.300;0.394;2022-10-17T07:45:50;99876.25;;;17.81;100.00
17311;BME280;8773;43.300;0.394;2022-10-17T07:48:19;99879.44;;;17.56;100.00
17311;BME280;8773;43.300;0.394;2022-10-17T07:50:48;99879.25;;;17.42;100.00
17311;BME280;8773;43.300;0.394;2022-10-17T07:53:16;99891.88;;;17.08;100.00
17311;BME280;8773;43.300;0.394;2022-10-17T07:55:46;99890.31;;;17.21;100.00
17311;BME280;8773;43.300;0.394;2022-10-17T07:58:15;99894.56;;;17.11;100.00
17311;BME280;8773;43.300;0.394;2022-10-17T08:00:45;99877.75;;;17.05;100.00
17311;BME280;8773;43.300;0.394;2022-10-17T08:03:14;99869.84;;;17.05;100.00
17311;BME280;8773;43.300;0.394;2022-10-17T08:05:42;99865.75;;;17.22;100.00
17311;BME280;8773;43.300;0.394;2022-10-17T08:08:10;99884.53;;;17.43;100.00
17311;BME280;8773;43.300;0.394;2022-10-17T08:10:38;99895.44;;;17.68;100.00
17311;BME280;8773;43.300;0.394;2022-10-17T08:13:07;99913.19;;;17.81;100.00
17311;BME280;8773;43.300;0.394;2022-10-17T08:15:36;99925.97;;;18.12;100.00
17311;BME280;8773;43.300;0.394;2022-10-17T08:18:05;99925.97;;;18.10;100.00
17311;BME280;8773;43.300;0.394;2022-10-17T08:20:33;99924.47;;;18.34;100.00
17311;BME280;8773;43.300;0.394;2022-10-17T08:23:01;99939.69;;;18.53;100.00
17311;BME280;8773;43.300;0.394;2022-10-17T08:25:29;99926.44;;;18.51;100.00
17311;BME280;8773;43.300;0.394;2022-10-17T08:27:57;99918.88;;;18.09;100.00
17311;BME280;8773;43.300;0.394;2022-10-17T08:30:27;99919.28;;;18.40;100.00
17311;BME280;8773;43.300;0.394;2022-10-17T08:32:56;99911.59;;;18.61;100.00
17311;BME280;8773;43.300;0.394;2022-10-17T08:35:24;99912.50;;;18.62;100.00
17311;BME280;8773;43.300;0.394;2022-10-17T08:37:54;99922.25;;;18.67;100.00
17311;BME280;8773;43.300;0.394;2022-10-17T08:40:29;99912.53;;;18.65;100.00
17311;BME280;8773;43.300;0.394;2022-10-17T08:43:24;99928.16;;;18.45;100.00
17311;BME280;8773;43.300;0.394;2022-10-17T08:46:04;99929.94;;;18.47;100.00
17311;BME280;8773;43.300;0.394;2022-10-17T08:48:36;99915.16;;;18.63;100.00
17311;BME280;8773;43.300;0.394;2022-10-17T08:51:15;99907.50;;;18.88;100.00
17311;BME280;8773;43.300;0.394;2022-10-17T08:53:48;99904.97;;;18.97;100.00
17311;BME280;8773;43.300;0.394;2022-10-17T08:56:34;99891.75;;;18.97;100.00
17311;BME280;8773;43.300;0.394;2022-10-17T08:59:25;99882.91;;;18.95;100.00
17311;BME280;8773;43.300;0.394;2022-10-17T09:02:00;99890.69;;;18.80;100.00
17311;BME280;8773;43.300;0.394;2022-10-17T09:04:52;99894.22;;;18.80;100.00
17311;BME280;8773;43.300;0.394;2022-10-17T09:07:26;99904.69;;;18.72;100.00
17311;BME280;8773;43.300;0.394;2022-10-17T09:10:03;99918.13;;;18.94;100.00
17311;BME280;8773;43.300;0.394;2022-10-17T09:12:45;99919.06;;;19.01;100.00
17311;BME280;8773;43.300;0.394;2022-10-17T09:15:34;99915.59;;;19.02;100.00
17311;BME280;8773;43.300;0.394;2022-10-17T09:18:11;99918.41;;;19.26;100.00
17311;BME280;8773;43.300;0.394;2022-10-17T09:20:46;99927.34;;;19.39;100.00
17311;BME280;8773;43.300;0.394;2022-10-17T09:23:19;99936.22;;;19.47;100.00
17311;BME280;8773;43.300;0.394;2022-10-17T09:25:51;99926.59;;;19.57;100.00
17311;BME280;8773;43.300;0.394;2022-10-17T09:28:21;99932.78;;;19.57;100.00
17311;BME280;8773;43.300;0.394;2022-10-17T09:30:55;99908.75;;;19.30;100.00
17311;BME280;8773;43.300;0.394;2022-10-17T09:33:27;99915.63;;;19.08;100.00
17311;BME280;8773;43.300;0.394;2022-10-17T09:36:19;99904.94;;;18.99;100.00
17311;BME280;8773;43.300;0.394;2022-10-17T09:38:50;99915.56;;;19.00;100.00
17311;BME280;8773;43.300;0.394;2022-10-17T09:41:20;99898.88;;;19.07;100.00
17311;BME280;8773;43.300;0.394;2022-10-17T09:44:18;99891.97;;;19.22;100.00
17311;BME280;8773;43.300;0.394;2022-10-17T09:47:05;99890.19;;;19.24;100.00
17311;BME280;8773;43.300;0.394;2022-10-17T09:49:37;99900.84;;;19.33;100.00
17311;BME280;8773;43.300;0.394;2022-10-17T09:52:10;99912.38;;;19.43;100.00
17311;BME280;8773;43.300;0.394;2022-10-17T09:54:42;99916.81;;;19.48;100.00
17311;BME280;8773;43.300;0.394;2022-10-17T09:57:12;99913.31;;;19.54;100.00
17311;BME280;8773;43.300;0.394;2022-10-17T09:59:41;99900.13;;;19.58;100.00
17311;BME280;8773;43.300;0.394;2022-10-17T10:02:19;99901.88;;;19.56;100.00
17311;BME280;8773;43.300;0.394;2022-10-17T10:04:54;99883.00;;;19.07;100.00
17311;BME280;8773;43.300;0.394;2022-10-17T10:07:32;99876.81;;;19.05;100.00
17311;BME280;8773;43.300;0.394;2022-10-17T10:10:02;99875.25;;;19.27;100.00
17311;BME280;8773;43.300;0.394;2022-10-17T10:12:33;99882.44;;;19.48;100.00
17311;BME280;8773;43.300;0.394;2022-10-17T10:15:01;99885.28;;;19.76;100.00
17311;BME280;8773;43.300;0.394;2022-10-17T10:17:35;99907.50;;;20.06;100.00
17311;BME280;8773;43.300;0.394;2022-10-17T10:20:25;99924.50;;;20.54;100.00
17311;BME280;8773;43.300;0.394;2022-10-17T10:23:10;99931.69;;;20.92;100.00
17311;BME280;8773;43.300;0.394;2022-10-17T10:25:48;99927.22;;;20.83;100.00
17311;BME280;8773;43.300;0.394;2022-10-17T10:28:17;99929.06;;;21.16;100.00
17311;BME280;8773;43.300;0.394;2022-10-17T10:30:48;99933.44;;;21.85;100.00
17311;BME280;8773;43.300;0.394;2022-10-17T10:33:19;99940.41;;;22.32;100.00
17311;BME280;8773;43.300;0.394;2022-10-17T10:35:55;99933.22;;;22.55;100.00
17311;BME280;8773;43.300;0.394;2022-10-17T10:38:25;99927.78;;;22.86;100.00
17311;BME280;8773;43.300;0.394;2022-10-17T10:40:54;99919.03;;;22.63;100.00
17311;BME280;8773;43.300;0.394;2022-10-17T10:43:28;99913.66;;;22.72;100.00
17311;BME280;8773;43.300;0.394;2022-10-17T10:45:59;99908.31;;;22.76;100.00
17311;BME280;8773;43.300;0.394;2022-10-17T10:48:31;99894.09;;;22.80;100.00
17311;BME280;8773;43.300;0.394;2022-10-17T10:51:04;99893.28;;;22.72;100.00
17311;BME280;8773;43.300;0.394;2022-10-17T10:53:43;99887.91;;;22.82;100.00
17311;BME280;8773;43.300;0.394;2022-10-17T10:56:16;99887.06;;;22.72;100.00
17311;BME280;8773;43.300;0.394;2022-10-17T10:58:51;99891.34;;;22.93;100.00
17311;BME280;8773;43.300;0.394;2022-10-17T11:01:27;99897.50;;;22.99;100.00
17311;BME280;8773;43.300;0.394;2022-10-17T11:04:07;99902.75;;;23.10;100.00
17311;BME280;8773;43.300;0.394;2022-10-17T11:06:43;99898.53;;;22.82;100.00
17311;BME280;8773;43.300;0.394;2022-10-17T11:09:31;99898.66;;;22.58;100.00
17311;BME280;8773;43.300;0.394;2022-10-17T11:12:08;99900.44;;;22.58;100.00
17311;BME280;8773;43.300;0.394;2022-10-17T11:14:42;99903.84;;;22.78;100.00
17311;BME280;8773;43.300;0.394;2022-10-17T11:17:18;99917.84;;;23.10;100.00
17311;BME280;8773;43.300;0.394;2022-10-17T11:19:58;99915.91;;;23.30;100.00
17311;BME280;8773;43.300;0.394;2022-10-17T11:22:31;99911.38;;;23.44;100.00
17311;BME280;8773;43.300;0.394;2022-10-17T11:25:04;99899.72;;;23.56;100.00
17311;BME280;8773;43.300;0.394;2022-10-17T11:27:33;99900.56;;;23.60;100.00
17311;BME280;8773;43.300;0.394;2022-10-17T11:30:01;99895.28;;;23.57;100.00
17311;BME280;8773;43.300;0.394;2022-10-17T11:32:34;99888.13;;;23.63;100.00
17311;BME280;8773;43.300;0.394;2022-10-17T11:35:07;99886.13;;;23.82;100.00
17311;BME280;8773;43.300;0.394;2022-10-17T11:37:46;99894.91;;;23.91;100.00
17311;BME280;8773;43.300;0.394;2022-10-17T11:40:21;99893.16;;;23.88;100.00
17311;BME280;8773;43.300;0.394;2022-10-17T11:42:56;99896.56;;;24.04;100.00
17311;BME280;8773;43.300;0.394;2022-10-17T11:45:34;99895.56;;;24.14;100.00
17311;BME280;8773;43.300;0.394;2022-10-17T11:48:09;99899.88;;;24.26;100.00
17311;BME280;8773;43.300;0.394;2022-10-17T11:50:42;99896.84;;;24.52;100.00
17311;BME280;8773;43.300;0.394;2022-10-17T11:53:42;99892.19;;;24.69;100.00
17311;BME280;8773;43.300;0.394;2022-10-17T11:56:11;99891.06;;;24.83;100.00
17311;BME280;8773;43.300;0.394;2022-10-17T11:58:49;99891.25;;;24.74;100.00
17311;BME280;8773;43.300;0.394;2022-10-17T12:01:25;99891.88;;;24.88;100.00
17311;BME280;8773;43.300;0.394;2022-10-17T12:04:06;99889.22;;;24.89;100.00
17311;BME280;8773;43.300;0.394;2022-10-17T12:06:51;99880.94;;;25.06;100.00
17311;BME280;8773;43.300;0.394;2022-10-17T12:09:39;99876.41;;;25.11;100.00
17311;BME280;8773;43.300;0.394;2022-10-17T12:12:09;99887.09;;;25.11;100.00
17311;BME280;8773;43.300;0.394;2022-10-17T12:14:41;99883.63;;;25.05;100.00
17311;BME280;8773;43.300;0.394;2022-10-17T12:17:27;99886.44;;;24.96;100.00
17311;BME280;8773;43.300;0.394;2022-10-17T12:23:26;99881.56;;;25.24;100.00
17311;BME280;8773;43.300;0.394;2022-10-17T12:25:58;99870.84;;;25.27;95.97
17311;BME280;8773;43.300;0.394;2022-10-17T12:28:31;99879.50;;;25.41;99.73
17311;BME280;8773;43.300;0.394;2022-10-17T12:31:03;99883.91;;;25.44;94.60
17311;BME280;8773;43.300;0.394;2022-10-17T12:33:34;99875.75;;;25.51;88.81
17311;BME280;8773;43.300;0.394;2022-10-17T12:39:40;99882.72;;;25.58;80.14
17311;BME280;8773;43.300;0.394;2022-10-17T12:42:43;99874.56;;;25.66;79.69
17311;BME280;8773;43.300;0.394;2022-10-17T12:45:43;99881.44;;;25.78;79.80
17311;BME280;8773;43.300;0.394;2022-10-17T12:48:11;99869.00;;;25.77;79.17
17311;BME280;8773;43.300;0.394;2022-10-17T12:50:59;99869.66;;;25.91;77.57
17311;BME280;8773;43.300;0.394;2022-10-17T12:53:52;99859.66;;;25.53;79.53
17311;BME280;8773;43.300;0.394;2022-10-17T12:56:31;99860.81;;;25.88;78.78
17311;BME280;8773;43.300;0.394;2022-10-17T12:59:08;99862.19;;;26.09;79.69
17311;BME280;8773;43.300;0.394;2022-10-17T13:01:43;99859.09;;;26.27;80.47
17311;BME280;8773;43.300;0.394;2022-10-17T13:04:12;99855.19;;;26.43;84.20
17311;BME280;8773;43.300;0.394;2022-10-17T13:06:45;99859.09;;;26.27;80.18
17311;BME280;8773;43.300;0.394;2022-10-17T13:09:21;99859.09;;;26.27;80.64
17311;BME280;8773;43.300;0.394;2022-10-17T13:11:52;99851.41;;;26.12;81.09
17311;BME280;8773;43.300;0.394;2022-10-17T13:14:24;99857.63;;;26.14;79.62
17311;BME280;8773;43.300;0.394;2022-10-17T13:16:54;99858.97;;;26.33;79.57
17311;BME280;8773;43.300;0.394;2022-10-17T13:19:24;99857.75;;;26.50;79.35
17311;BME280;8773;43.300;0.394;2022-10-17T13:21:54;99859.25;;;26.61;76.89
17311;BME280;8773;43.300;0.394;2022-10-17T13:24:30;99847.41;;;26.73;76.75
17311;BME280;8773;43.300;0.394;2022-10-17T13:26:59;99861.06;;;26.61;71.91
17311;BME280;8773;43.300;0.394;2022-10-17T13:29:29;99850.47;;;26.94;78.94
17311;BME280;8773;43.300;0.394;2022-10-17T13:32:00;99851.03;;;27.08;73.66
17311;BME280;8773;43.300;0.394;2022-10-17T13:34:31;99858.03;;;27.14;70.20
17311;BME280;8773;43.300;0.394;2022-10-17T13:37:02;99860.41;;;27.24;70.67